Terminal Aerodrome Forecast
Issued by NWS

Home | Current Version | Previous Version | Text Only | Print | Product List | Glossary On
Versions: 1 2 3 4 5 6 7 8 9 10 11 12 13 14 15 16
000
FTUS41 KCAR 281720
TAFPQI
TAF
KPQI 281720Z 2818/2918 13007KT P6SM BKN200
     FM290300 08006KT P6SM BKN020
     FM291500 13009KT P6SM BKN015=

USA.gov is the U.S. government's official web portal to all federal, state and local government web resources and services.